Time;durP1;ratioP1;P1;durP2;ratioP2;P2;SDS_P1;SDS_P2;PMS_P1;PMS_P2;Temp;Humidity;BMP_temperature;BMP_pressure;BME280_temperature;BME280_humidity;BME280_pressure;Samples;Min_cycle;Max_cycle;Signal;HPM_P1;HPM_P2
2022/03/10 00:01:29;;;;;;;7.60;3.87;;;1.40;44.00;0.60;99027.00;;;;5087277;28;20287;-81
2022/03/10 00:03:56;;;;;;;5.77;3.23;;;1.40;44.50;0.60;99015.00;;;;5076854;28;20223;-80
2022/03/10 00:06:23;;;;;;;7.67;3.13;;;1.40;44.50;0.50;99023.00;;;;5057970;28;20629;-80
2022/03/10 00:08:52;;;;;;;6.20;2.97;;;1.40;44.40;0.40;99029.00;;;;5057509;28;20236;-80
2022/03/10 00:11:18;;;;;;;5.10;2.60;;;1.40;44.30;0.30;99031.00;;;;5074848;28;20229;-79
2022/03/10 00:13:46;;;;;;;6.70;3.30;;;1.20;44.40;0.30;99025.00;;;;5074616;28;20647;-77
2022/03/10 00:16:12;;;;;;;6.03;2.93;;;1.20;44.50;0.30;99042.00;;;;5074512;28;20212;-79
2022/03/10 00:18:39;;;;;;;5.47;2.83;;;1.20;45.00;0.30;99038.00;;;;5074360;28;20212;-77
2022/03/10 00:21:06;;;;;;;4.37;3.57;;;1.20;45.20;0.30;99032.00;;;;5074174;28;20193;-79
2022/03/10 00:23:35;;;;;;;7.83;2.97;;;1.10;45.20;0.40;99035.00;;;;5074310;28;20277;-79
2022/03/10 00:26:02;;;;;;;7.73;3.70;;;1.20;45.20;0.40;99040.00;;;;5074312;28;20283;-79
2022/03/10 00:28:28;;;;;;;2.27;2.17;;;1.20;46.10;0.40;99051.00;;;;5074212;28;20223;-78
2022/03/10 00:30:54;;;;;;;5.33;2.20;;;1.20;45.40;0.40;99057.00;;;;5074282;28;20345;-77
2022/03/10 00:33:22;;;;;;;5.33;3.77;;;1.20;45.00;0.20;99051.00;;;;5056530;28;20204;-79
2022/03/10 00:35:49;;;;;;;3.43;3.13;;;1.20;45.00;0.20;99064.00;;;;5074206;28;20528;-79
2022/03/10 00:38:17;;;;;;;3.80;3.00;;;1.00;45.30;0.40;99056.00;;;;5074047;28;20195;-78
2022/03/10 00:40:43;;;;;;;2.43;2.23;;;1.10;45.90;0.20;99059.00;;;;5056494;28;20709;-79
2022/03/10 00:43:11;;;;;;;2.97;2.77;;;1.10;45.60;0.20;99064.00;;;;5056011;28;20274;-80
2022/03/10 00:45:41;;;;;;;10.07;3.23;;;1.00;45.80;0.10;99062.00;;;;5074116;28;20717;-80
2022/03/10 00:48:09;;;;;;;2.83;2.63;;;1.00;45.70;0.20;99054.00;;;;5073897;28;20218;-80
2022/03/10 00:50:36;;;;;;;5.97;3.07;;;1.00;45.90;0.20;99043.00;;;;5073932;28;20630;-80
2022/03/10 00:53:03;;;;;;;3.07;2.20;;;1.00;46.00;0.20;99053.00;;;;5073948;28;20203;-80
2022/03/10 00:55:30;;;;;;;3.03;2.77;;;1.00;45.40;0.10;99053.00;;;;5073777;28;20281;-79
2022/03/10 00:57:56;;;;;;;2.80;2.57;;;0.90;45.40;0.10;99054.00;;;;5073924;28;20299;-79
2022/03/10 01:00:28;;;;;;;3.97;2.67;;;1.00;45.40;0.10;99056.00;;;;5073736;28;20215;-80
2022/03/10 01:02:54;;;;;;;3.83;2.73;;;0.90;45.60;0.10;99050.00;;;;5073730;28;20246;-80
2022/03/10 01:05:23;;;;;;;2.67;2.47;;;0.90;45.60;0.00;99049.00;;;;5072728;28;20314;-79
2022/03/10 01:07:52;;;;;;;2.97;2.67;;;0.90;45.70;0.00;99041.00;;;;5073628;28;20708;-80
2022/03/10 01:10:19;;;;;;;4.07;3.07;;;0.90;45.90;0.00;99042.00;;;;5073528;28;20257;-79
2022/03/10 01:12:47;;;;;;;5.83;3.50;;;0.80;46.50;0.00;99055.00;;;;5073516;28;20214;-79
2022/03/10 01:15:17;;;;;;;7.13;3.60;;;0.80;46.30;-0.10;99056.00;;;;5073444;28;20235;-80
2022/03/10 01:17:45;;;;;;;2.73;2.53;;;0.80;46.20;-0.20;99036.00;;;;5073690;28;20548;-80
2022/03/10 01:20:13;;;;;;;4.10;3.10;;;0.70;46.30;-0.40;99042.00;;;;5073792;28;20199;-79
2022/03/10 01:22:40;;;;;;;3.47;1.97;;;0.60;46.60;-0.40;99041.00;;;;5074293;28;20244;-79
2022/03/10 01:25:09;;;;;;;1.47;1.37;;;0.60;47.00;-0.20;99048.00;;;;5074546;28;20238;-79
2022/03/10 01:27:36;;;;;;;3.80;3.43;;;0.60;47.40;-0.30;99040.00;;;;5074122;28;20223;-80
2022/03/10 01:30:08;;;;;;;2.97;2.43;;;0.60;47.10;-0.40;99041.00;;;;5073970;28;20310;-81
2022/03/10 01:32:36;;;;;;;3.57;2.47;;;0.50;47.20;-0.30;99032.00;;;;5073533;28;20191;-80
2022/03/10 01:35:03;;;;;;;3.33;3.10;;;0.50;47.50;-0.40;99011.00;;;;5073810;28;20516;-80
2022/03/10 01:37:30;;;;;;;2.00;1.90;;;0.50;47.40;-0.50;99026.00;;;;5082853;28;20227;-81
2022/03/10 01:39:57;;;;;;;3.03;2.77;;;0.50;47.40;-0.50;99030.00;;;;5083416;28;20195;-80
2022/03/10 01:42:23;;;;;;;2.77;2.57;;;0.40;47.30;-0.50;99033.00;;;;5075564;28;20203;-80
2022/03/10 01:44:52;;;;;;;4.97;3.33;;;0.40;47.80;-0.50;99035.00;;;;5074094;28;20219;-79
2022/03/10 01:47:20;;;;;;;3.17;2.97;;;0.40;47.80;-0.50;99042.00;;;;5073746;28;20672;-78
2022/03/10 01:49:46;;;;;;;3.03;2.83;;;0.40;47.90;-0.50;99039.00;;;;5074263;28;20293;-80
2022/03/10 01:52:14;;;;;;;3.00;2.33;;;0.30;48.10;-0.60;99040.00;;;;5073759;28;20234;-80
2022/03/10 01:54:41;;;;;;;4.77;3.30;;;0.30;47.80;-0.60;99037.00;;;;5074263;28;20295;-79
2022/03/10 01:57:12;;;;;;;4.90;3.60;;;0.30;48.10;-0.60;99039.00;;;;5076807;28;20199;-80
2022/03/10 01:59:42;;;;;;;3.27;2.97;;;0.30;48.20;-0.60;99038.00;;;;5059642;28;20537;-79
2022/03/10 02:02:11;;;;;;;3.20;2.97;;;0.30;48.50;-0.50;99038.00;;;;5077282;28;20206;-80
2022/03/10 02:04:38;;;;;;;4.23;3.77;;;0.30;48.40;-0.60;99024.00;;;;5077108;28;20222;-80
2022/03/10 02:10:16;;;;;;;4.27;3.30;;;0.30;48.40;-0.60;99022.00;;;;5077284;28;20198;-80
2022/03/10 02:12:40;;;;;;;2.87;2.53;;;0.30;48.20;-0.70;99044.00;;;;5076432;28;20314;-80
2022/03/10 02:17:59;;;;;;;4.03;3.00;;;0.20;49.00;-0.60;99025.00;;;;5076326;28;20203;-80
2022/03/10 02:20:27;;;;;;;3.70;2.70;;;0.30;48.40;-0.40;99026.00;;;;5076593;28;20191;-79
2022/03/10 02:22:54;;;;;;;4.73;1.37;;;0.40;48.30;-0.50;99043.00;;;;5076443;28;20199;-80
2022/03/10 02:25:23;;;;;;;2.60;2.40;;;0.30;47.80;-0.60;99036.00;;;;5076475;28;20673;-77
2022/03/10 02:27:51;;;;;;;2.03;1.93;;;0.20;48.10;-0.50;99032.00;;;;5076298;28;20524;-79
2022/03/10 02:30:19;;;;;;;2.00;1.87;;;0.30;48.00;-0.70;99037.00;;;;5076385;28;20282;-80
2022/03/10 02:32:48;;;;;;;2.53;2.33;;;0.20;47.90;-0.70;99034.00;;;;5076261;28;20196;-80
2022/03/10 02:35:17;;;;;;;2.37;2.23;;;0.20;48.20;-0.80;99033.00;;;;5075917;28;20227;-80
2022/03/10 02:37:46;;;;;;;2.63;2.47;;;0.20;48.10;-0.80;99029.00;;;;5076183;28;20222;-80
2022/03/10 02:40:14;;;;;;;2.03;1.93;;;0.10;48.20;-0.80;99035.00;;;;5076246;28;20214;-81
2022/03/10 02:42:41;;;;;;;3.60;3.37;;;0.10;48.60;-0.80;99035.00;;;;5076164;28;20215;-79
2022/03/10 02:45:10;;;;;;;1.30;1.30;;;0.10;48.90;-0.80;99042.00;;;;5076244;28;20218;-80
2022/03/10 02:47:39;;;;;;;3.87;3.57;;;0.10;49.30;-0.70;99034.00;;;;5075995;28;20223;-80
2022/03/10 02:50:07;;;;;;;3.17;2.70;;;0.10;49.10;-0.80;99026.00;;;;5076282;28;20517;-80
2022/03/10 02:52:35;;;;;;;6.07;3.07;;;0.10;49.10;-0.90;99033.00;;;;5076122;28;20232;-80
2022/03/10 02:55:03;;;;;;;4.17;2.43;;;0.00;48.80;-1.00;99038.00;;;;5075761;28;20524;-78
2022/03/10 02:57:31;;;;;;;2.47;2.27;;;0.00;49.20;-1.00;99031.00;;;;5076407;28;20289;-79
2022/03/10 02:59:59;;;;;;;3.53;3.10;;;0.00;49.30;-1.10;99038.00;;;;5059026;28;20216;-81
2022/03/10 03:02:25;;;;;;;1.60;1.50;;;-0.10;49.30;-1.10;99038.00;;;;5076904;28;20264;-82
2022/03/10 03:04:52;;;;;;;1.40;1.33;;;-0.10;49.50;-1.10;99043.00;;;;5077257;28;20278;-81
2022/03/10 03:07:18;;;;;;;4.37;2.47;;;-0.10;49.60;-1.20;99054.00;;;;5076830;28;20227;-83
2022/03/10 03:09:45;;;;;;;4.60;2.10;;;-0.20;50.50;-1.10;99052.00;;;;5077283;28;20530;-81
2022/03/10 03:12:11;;;;;;;2.07;1.97;;;-0.20;49.80;-1.10;99040.00;;;;5078687;28;20188;-82
2022/03/10 03:14:41;;;;;;;1.50;1.40;;;-0.20;50.10;-1.00;99059.00;;;;5083094;28;20647;-81
2022/03/10 03:17:08;;;;;;;2.93;2.57;;;-0.10;50.30;-1.00;99060.00;;;;5079331;28;20272;-83
2022/03/10 03:19:34;;;;;;;2.13;2.03;;;-0.10;50.30;-1.00;99058.00;;;;5078389;28;20288;-83
2022/03/10 03:22:01;;;;;;;3.73;3.43;;;-0.10;50.30;-1.00;99066.00;;;;5079214;28;20318;-81
2022/03/10 03:24:27;;;;;;;3.47;2.03;;;-0.10;50.40;-1.00;99062.00;;;;5078858;28;20207;-80
2022/03/10 03:26:54;;;;;;;3.47;3.17;;;-0.10;50.30;-1.00;99066.00;;;;5062029;28;20596;-81
2022/03/10 03:29:22;;;;;;;2.43;2.23;;;-0.10;50.30;-1.00;99062.00;;;;5079871;28;20207;-82
2022/03/10 03:31:50;;;;;;;2.50;2.27;;;-0.10;50.30;-1.00;99054.00;;;;5079542;28;20250;-80
2022/03/10 03:34:16;;;;;;;2.87;2.67;;;-0.20;50.00;-1.00;99067.00;;;;5078267;28;20314;-80
2022/03/10 03:36:46;;;;;;;6.53;3.03;;;-0.20;50.00;-1.10;99067.00;;;;5080540;28;20222;-79
2022/03/10 03:39:15;;;;;;;4.03;3.73;;;-0.20;49.90;-1.10;99069.00;;;;5060719;28;20188;-80
2022/03/10 03:41:42;;;;;;;5.50;2.90;;;-0.20;50.00;-1.10;99062.00;;;;5076635;28;20246;-79
2022/03/10 03:44:10;;;;;;;3.23;2.97;;;-0.20;49.90;-1.30;99076.00;;;;5076740;28;20278;-80
2022/03/10 03:46:38;;;;;;;2.80;2.43;;;-0.20;50.00;-1.20;99074.00;;;;5076716;28;20206;-80
2022/03/10 03:49:05;;;;;;;3.17;2.97;;;-0.30;50.20;-1.10;99076.00;;;;5076519;28;20211;-79
2022/03/10 03:51:34;;;;;;;2.37;2.23;;;-0.30;50.90;-1.00;99067.00;;;;5075798;28;20282;-81
2022/03/10 03:54:00;;;;;;;2.57;2.40;;;-0.20;50.50;-1.30;99078.00;;;;5075842;28;20341;-80
2022/03/10 03:56:27;;;;;;;1.83;1.73;;;-0.30;50.20;-1.20;99061.00;;;;5076291;28;20199;-80
2022/03/10 03:58:54;;;;;;;1.83;1.73;;;-0.30;51.00;-1.30;99061.00;;;;5076387;28;20239;-80
2022/03/10 04:01:20;;;;;;;3.03;2.77;;;-0.40;50.90;-1.30;99084.00;;;;5076078;28;20247;-80
2022/03/10 04:03:47;;;;;;;3.90;2.70;;;-0.40;51.30;-1.40;99077.00;;;;5057871;28;20623;-80
2022/03/10 04:06:16;;;;;;;4.63;3.00;;;-0.40;51.30;-1.40;99058.00;;;;5075553;28;20300;-80
2022/03/10 04:08:45;;;;;;;7.03;3.33;;;-0.40;51.60;-1.50;99076.00;;;;5058835;28;20207;-79
2022/03/10 04:11:14;;;;;;;3.33;3.07;;;-0.60;51.90;-1.50;99087.00;;;;5076238;28;20523;-81
2022/03/10 04:13:40;;;;;;;6.93;3.33;;;-0.50;52.40;-1.40;99087.00;;;;5075886;28;20255;-80
2022/03/10 04:16:09;;;;;;;4.40;3.33;;;-0.50;52.40;-1.30;99088.00;;;;5075133;28;20213;-80
2022/03/10 04:18:36;;;;;;;2.23;1.93;;;-0.50;52.40;-1.30;99072.00;;;;5074884;28;20214;-79
2022/03/10 04:21:03;;;;;;;2.77;2.57;;;-0.40;52.60;-1.30;99047.00;;;;5074994;28;20308;-79
2022/03/10 04:23:31;;;;;;;3.90;3.03;;;-0.50;52.20;-1.30;99080.00;;;;5075234;28;20210;-79
2022/03/10 04:25:57;;;;;;;1.63;1.53;;;-0.40;52.50;-1.40;99089.00;;;;5075256;28;20574;-79
2022/03/10 04:28:24;;;;;;;2.53;2.43;;;-0.50;53.30;-1.40;99094.00;;;;5075293;28;20308;-79
2022/03/10 04:30:53;;;;;;;2.90;2.53;;;-0.50;52.40;-1.40;99094.00;;;;5075641;28;20199;-80
2022/03/10 04:33:19;;;;;;;3.77;3.40;;;-0.50;52.50;-1.40;99086.00;;;;5074999;28;20278;-79
2022/03/10 04:35:46;;;;;;;2.03;1.73;;;-0.50;53.00;-1.40;99091.00;;;;5075097;28;20231;-80
2022/03/10 04:38:13;;;;;;;2.53;2.30;;;-0.50;52.60;-1.50;99089.00;;;;5074932;28;20627;-76
2022/03/10 04:40:40;;;;;;;3.03;1.90;;;-0.50;52.40;-1.60;99090.00;;;;5057800;28;20231;-78
2022/03/10 04:43:07;;;;;;;3.17;2.87;;;-0.60;52.60;-1.60;99090.00;;;;5075327;28;20259;-79
2022/03/10 04:45:34;;;;;;;3.13;2.53;;;-0.70;52.70;-1.60;99086.00;;;;5075093;28;20207;-78
2022/03/10 04:48:02;;;;;;;7.33;2.37;;;-0.60;52.90;-1.60;99084.00;;;;5074939;28;20241;-80
2022/03/10 04:50:32;;;;;;;1.80;1.70;;;-0.60;53.00;-1.60;99079.00;;;;5074974;28;20202;-79
2022/03/10 04:52:58;;;;;;;2.73;2.53;;;-0.60;53.30;-1.60;99074.00;;;;5075194;28;20220;-80
2022/03/10 04:55:25;;;;;;;2.50;2.30;;;-0.60;53.10;-1.70;99072.00;;;;5074598;28;20656;-79
2022/03/10 04:57:52;;;;;;;4.73;2.17;;;-0.70;53.40;-1.60;99066.00;;;;5074632;28;20248;-80
2022/03/10 05:00:19;;;;;;;4.03;3.00;;;-0.70;53.70;-1.50;99064.00;;;;5074257;28;20223;-79
2022/03/10 05:02:47;;;;;;;1.93;1.83;;;-0.70;53.70;-1.50;99056.00;;;;5074658;28;20674;-80
2022/03/10 05:05:14;;;;;;;3.60;2.57;;;-0.70;53.40;-1.60;99054.00;;;;5074182;28;20210;-79
2022/03/10 05:07:41;;;;;;;3.83;2.83;;;-0.70;53.30;-1.60;99067.00;;;;5073754;28;20227;-79
2022/03/10 05:10:10;;;;;;;2.17;1.97;;;-0.70;53.40;-1.60;99062.00;;;;5056343;28;20562;-78
2022/03/10 05:12:46;;;;;;;5.60;3.23;;;-0.70;53.30;-1.60;99057.00;;;;5073773;28;20335;-81
2022/03/10 05:15:16;;;;;;;3.20;2.83;;;-0.70;53.10;-1.80;99052.00;;;;5075203;28;20222;-79
2022/03/10 05:17:43;;;;;;;1.47;1.37;;;-0.80;53.10;-1.90;99050.00;;;;5074041;28;20674;-80
2022/03/10 05:20:10;;;;;;;2.33;2.23;;;-0.90;53.30;-1.70;99056.00;;;;5073549;28;20552;-80
2022/03/10 05:22:45;;;;;;;3.10;2.23;;;-0.80;53.60;-1.70;99061.00;;;;5073806;28;20282;-80
2022/03/10 05:25:14;;;;;;;3.30;2.93;;;-0.80;53.90;-1.70;99061.00;;;;5073645;28;20216;-78
2022/03/10 05:27:41;;;;;;;2.33;1.80;;;-0.80;53.30;-1.80;99029.00;;;;5073404;28;20923;-79
2022/03/10 05:30:10;;;;;;;2.23;2.13;;;-0.90;53.20;-1.80;99057.00;;;;5074877;28;20206;-79
2022/03/10 05:32:37;;;;;;;2.77;2.57;;;-0.90;53.50;-1.80;99058.00;;;;5077017;28;20220;-79
2022/03/10 05:35:06;;;;;;;2.20;2.10;;;-0.90;53.70;-1.90;99054.00;;;;5076757;28;20226;-79
2022/03/10 05:37:35;;;;;;;1.80;1.70;;;-0.90;54.10;-1.80;99051.00;;;;5076917;28;20192;-80
2022/03/10 05:40:07;;;;;;;2.43;2.27;;;-0.90;54.10;-1.80;99055.00;;;;5077070;28;20230;-80
2022/03/10 05:42:34;;;;;;;1.50;1.40;;;-0.90;54.20;-1.80;99057.00;;;;5076918;28;20201;-77
2022/03/10 05:45:00;;;;;;;4.20;3.40;;;-0.90;55.00;-1.90;99067.00;;;;5077112;28;20284;-79
2022/03/10 05:47:27;;;;;;;2.13;2.03;;;-1.00;54.10;-1.80;99062.00;;;;5077104;28;20232;-80
2022/03/10 05:49:54;;;;;;;1.87;1.77;;;-0.90;54.10;-1.80;99064.00;;;;5076794;28;20191;-79
2022/03/10 05:52:20;;;;;;;1.93;1.83;;;-0.90;54.10;-1.70;99063.00;;;;5076897;28;20195;-80
2022/03/10 05:54:47;;;;;;;2.70;2.50;;;-0.80;54.60;-1.70;99066.00;;;;5076826;28;20230;-79
2022/03/10 05:57:16;;;;;;;2.60;2.50;;;-0.80;53.70;-1.70;99075.00;;;;5076782;28;20198;-78
2022/03/10 05:59:42;;;;;;;2.70;2.30;;;-0.80;54.00;-1.70;99086.00;;;;5076788;28;20222;-81
2022/03/10 06:02:09;;;;;;;3.33;2.40;;;-0.80;54.00;-1.80;99079.00;;;;5076810;28;20216;-79
2022/03/10 06:04:36;;;;;;;4.30;2.90;;;-0.80;54.00;-1.80;99077.00;;;;5076730;28;20194;-78
2022/03/10 06:07:03;;;;;;;13.03;1.87;;;-0.90;53.80;-1.90;99079.00;;;;5076454;28;20226;-79
2022/03/10 06:09:32;;;;;;;2.10;2.00;;;-0.90;54.10;-1.90;99068.00;;;;5076856;28;20274;-79
2022/03/10 06:11:59;;;;;;;1.83;1.73;;;-0.90;54.20;-1.70;99076.00;;;;5076373;28;20209;-78
2022/03/10 06:14:25;;;;;;;3.07;1.70;;;-0.80;54.30;-1.80;99068.00;;;;5076311;28;20316;-80
2022/03/10 06:16:52;;;;;;;2.33;2.13;;;-0.80;54.20;-1.70;99080.00;;;;5076337;28;20194;-79
2022/03/10 06:19:19;;;;;;;3.17;2.83;;;-0.80;54.80;-1.50;99071.00;;;;5076272;28;20232;-80
2022/03/10 06:21:46;;;;;;;2.57;2.37;;;-0.70;54.70;-1.70;99074.00;;;;5076559;28;20218;-79
2022/03/10 06:24:13;;;;;;;1.63;1.60;;;-0.60;53.90;-1.50;99063.00;;;;5076216;28;20199;-78
2022/03/10 06:26:41;;;;;;;3.80;2.60;;;-0.60;54.10;-1.50;99070.00;;;;5076240;28;20253;-79
2022/03/10 06:29:08;;;;;;;3.53;2.20;;;-0.60;54.30;-1.50;99075.00;;;;5076233;28;20229;-79
2022/03/10 06:31:35;;;;;;;1.80;1.70;;;-0.60;54.80;-1.50;99073.00;;;;5076333;28;20205;-79
2022/03/10 06:34:01;;;;;;;3.17;2.97;;;-0.60;54.10;-1.60;99089.00;;;;5075934;28;20317;-79
2022/03/10 06:36:28;;;;;;;1.53;1.47;;;-0.60;53.90;-1.60;99084.00;;;;5076253;28;20298;-79
2022/03/10 06:38:54;;;;;;;2.47;2.27;;;-0.60;53.90;-1.60;99085.00;;;;5076018;28;20256;-79
2022/03/10 06:41:21;;;;;;;12.57;3.17;;;-0.60;54.00;-1.60;99089.00;;;;5075540;28;20331;-80
2022/03/10 06:43:48;;;;;;;4.67;4.27;;;-0.60;54.20;-1.50;99083.00;;;;5076019;28;20217;-80
2022/03/10 06:46:15;;;;;;;2.40;2.27;;;-0.60;54.60;-1.50;99082.00;;;;5075901;28;20209;-79
2022/03/10 06:48:41;;;;;;;6.47;4.47;;;-0.50;54.80;-1.30;99081.00;;;;5075976;28;20282;-79
2022/03/10 06:51:08;;;;;;;4.13;3.73;;;-0.50;55.10;-1.30;99088.00;;;;5075978;28;20199;-79
2022/03/10 06:53:34;;;;;;;3.30;3.00;;;-0.40;54.60;-1.20;99096.00;;;;5075812;28;20259;-79
2022/03/10 06:56:01;;;;;;;4.20;3.80;;;-0.40;54.70;-1.20;99080.00;;;;5075746;28;20227;-78
2022/03/10 06:58:28;;;;;;;4.37;3.97;;;-0.30;54.40;-1.10;99092.00;;;;5075705;28;20291;-79
2022/03/10 07:00:55;;;;;;;4.43;3.73;;;-0.20;54.40;-1.10;99101.00;;;;5075819;28;20732;-79
2022/03/10 07:03:22;;;;;;;5.50;3.07;;;-0.20;54.00;-1.00;99107.00;;;;5075734;28;20289;-80
2022/03/10 07:05:48;;;;;;;2.30;2.10;;;-0.20;54.30;-1.20;99108.00;;;;5076181;28;20254;-80
2022/03/10 07:08:15;;;;;;;3.87;3.50;;;-0.20;54.40;-1.00;99088.00;;;;5076204;28;20202;-80
2022/03/10 07:10:44;;;;;;;9.13;1.90;;;-0.10;54.60;-1.00;99100.00;;;;5076036;28;20278;-80
2022/03/10 07:13:10;;;;;;;3.97;3.30;;;-0.10;54.40;-0.80;99099.00;;;;5075726;28;20223;-77
2022/03/10 07:15:38;;;;;;;3.63;2.60;;;0.00;54.10;-0.70;99100.00;;;;5085491;28;20211;-79
2022/03/10 07:18:05;;;;;;;3.77;3.33;;;0.10;53.90;-0.60;99103.00;;;;5087701;28;20226;-81
2022/03/10 07:20:32;;;;;;;4.67;2.40;;;0.20;53.90;-0.60;99104.00;;;;5088038;28;20196;-80
2022/03/10 07:22:58;;;;;;;5.53;2.43;;;0.30;52.90;-0.50;99100.00;;;;5087860;28;20200;-79
2022/03/10 07:25:25;;;;;;;2.23;2.07;;;0.40;52.60;-0.40;99116.00;;;;5085985;28;20206;-79
2022/03/10 07:27:51;;;;;;;2.97;2.77;;;0.50;52.90;-0.30;99110.00;;;;5076399;28;20211;-79
2022/03/10 07:30:18;;;;;;;2.47;2.27;;;0.50;51.90;-0.10;99113.00;;;;5076675;28;20269;-79
2022/03/10 07:32:47;;;;;;;1.57;1.57;;;0.70;51.80;-0.10;99096.00;;;;5076443;28;20274;-77
2022/03/10 07:35:14;;;;;;;1.33;1.27;;;0.80;51.60;0.10;99124.00;;;;5075902;28;20239;-79
2022/03/10 07:37:40;;;;;;;2.90;2.60;;;0.90;51.90;0.20;99127.00;;;;5075982;28;20615;-79
2022/03/10 07:40:08;;;;;;;4.07;2.40;;;1.00;51.90;0.30;99135.00;;;;5079497;28;20211;-79
2022/03/10 07:42:35;;;;;;;3.13;2.03;;;1.10;52.10;0.40;99135.00;;;;5079486;28;20291;-79
2022/03/10 07:45:02;;;;;;;2.50;2.20;;;1.30;52.00;0.50;99122.00;;;;5087179;28;20207;-78
2022/03/10 07:47:29;;;;;;;2.90;2.67;;;1.40;51.70;0.70;99132.00;;;;5087143;28;20211;-78
2022/03/10 07:49:57;;;;;;;2.07;1.97;;;1.50;51.30;0.90;99131.00;;;;5087442;28;20540;-78
2022/03/10 07:52:24;;;;;;;2.73;2.50;;;1.60;51.10;1.00;99131.00;;;;5087535;28;20192;-74
2022/03/10 07:54:52;;;;;;;2.40;2.20;;;1.80;50.50;1.10;99129.00;;;;5076834;28;20224;-72
2022/03/10 07:57:19;;;;;;;2.33;2.23;;;1.90;50.40;1.20;99123.00;;;;5075392;28;20207;-72
2022/03/10 07:59:48;;;;;;;4.93;3.73;;;2.10;50.30;1.40;99121.00;;;;5075882;28;20204;-74
2022/03/10 08:02:15;;;;;;;2.40;2.20;;;2.20;50.10;1.50;99121.00;;;;5074808;28;20272;-74
2022/03/10 08:04:41;;;;;;;5.17;2.97;;;2.30;49.80;1.60;99122.00;;;;5074813;28;20201;-74
2022/03/10 08:07:08;;;;;;;2.53;2.33;;;2.40;49.60;1.80;99120.00;;;;5074006;28;20235;-74
2022/03/10 08:09:35;;;;;;;2.23;2.03;;;2.50;49.60;1.80;99127.00;;;;5074570;28;20647;-74
2022/03/10 08:12:02;;;;;;;3.13;2.93;;;2.70;49.30;2.00;99126.00;;;;5074761;28;20534;-74
2022/03/10 08:14:28;;;;;;;3.00;2.80;;;2.80;49.00;2.10;99124.00;;;;5074444;28;20593;-74
2022/03/10 08:16:55;;;;;;;1.73;1.63;;;2.90;49.00;2.30;99118.00;;;;5074521;28;20232;-75
2022/03/10 08:19:22;;;;;;;3.10;2.80;;;3.10;48.80;2.40;99123.00;;;;5074417;28;20280;-75
2022/03/10 08:21:48;;;;;;;2.33;1.77;;;3.20;48.50;2.50;99119.00;;;;5074464;28;20260;-74
2022/03/10 08:24:16;;;;;;;7.17;2.33;;;3.30;48.60;2.70;99112.00;;;;5074308;28;20195;-76
2022/03/10 08:26:43;;;;;;;1.93;1.83;;;3.50;48.60;2.80;99116.00;;;;5074202;28;20269;-73
2022/03/10 08:29:10;;;;;;;2.50;1.83;;;3.60;48.80;3.10;99110.00;;;;5074230;28;20203;-75
2022/03/10 08:31:36;;;;;;;3.70;3.40;;;3.80;48.80;3.30;99112.00;;;;5074428;28;20203;-74
2022/03/10 08:34:05;;;;;;;2.30;2.03;;;4.00;48.70;3.60;99116.00;;;;5074056;28;20271;-74
2022/03/10 08:36:32;;;;;;;1.97;1.83;;;4.30;48.70;3.80;99102.00;;;;5074255;28;20191;-77
2022/03/10 08:38:58;;;;;;;2.60;2.40;;;4.50;48.30;3.90;99109.00;;;;5074193;28;20223;-75
2022/03/10 08:41:28;;;;;;;1.47;1.40;;;4.70;47.00;4.20;99108.00;;;;5074051;28;20304;-74
2022/03/10 08:43:54;;;;;;;2.23;2.00;;;4.90;46.10;4.30;99095.00;;;;5074059;28;20270;-75
2022/03/10 08:46:21;;;;;;;2.87;1.63;;;5.00;45.10;4.40;99091.00;;;;5073982;28;20687;-74
2022/03/10 08:48:47;;;;;;;1.70;1.63;;;5.20;44.50;4.50;99091.00;;;;5074180;28;20207;-75
2022/03/10 08:51:16;;;;;;;7.53;3.03;;;5.30;44.10;4.80;99088.00;;;;5056608;28;20650;-72
2022/03/10 08:53:43;;;;;;;2.83;2.33;;;5.40;43.40;5.00;99084.00;;;;5073962;28;20204;-75
2022/03/10 08:56:09;;;;;;;1.00;1.00;;;5.70;42.70;5.10;99090.00;;;;5073756;28;20607;-74
2022/03/10 08:58:36;;;;;;;3.07;1.83;;;5.80;41.40;5.20;99084.00;;;;5073563;28;20234;-74
2022/03/10 09:01:05;;;;;;;3.40;2.10;;;5.90;42.10;5.40;99079.00;;;;5073689;28;20199;-73
2022/03/10 09:03:31;;;;;;;1.43;1.33;;;6.10;41.40;5.50;99088.00;;;;5073490;28;20202;-73
2022/03/10 09:05:58;;;;;;;3.87;2.47;;;6.20;40.70;5.70;99087.00;;;;5073671;28;20280;-73
2022/03/10 09:08:24;;;;;;;1.13;1.13;;;6.40;40.50;5.80;99073.00;;;;5073610;28;20216;-73
2022/03/10 09:10:51;;;;;;;1.77;1.67;;;6.60;40.10;5.90;99082.00;;;;5073494;28;20302;-74
2022/03/10 09:13:17;;;;;;;2.13;1.93;;;6.60;39.80;6.10;99075.00;;;;5073434;28;20207;-72
2022/03/10 09:15:48;;;;;;;2.37;2.07;;;6.80;39.40;6.30;99070.00;;;;5073462;28;20252;-75
2022/03/10 09:18:14;;;;;;;3.40;2.47;;;7.00;39.00;6.30;99071.00;;;;5073609;28;20227;-75
2022/03/10 09:20:46;;;;;;;1.13;1.13;;;7.00;39.00;6.40;99072.00;;;;5073533;28;20234;-75
2022/03/10 09:23:13;;;;;;;2.40;2.20;;;7.10;38.70;6.40;99074.00;;;;5073419;28;20210;-74
2022/03/10 09:25:42;;;;;;;1.73;1.63;;;7.20;38.60;6.50;99074.00;;;;5073302;28;20258;-76
2022/03/10 09:28:10;;;;;;;1.33;1.33;;;7.20;38.50;6.50;99059.00;;;;5073465;28;20570;-74
2022/03/10 09:30:37;;;;;;;1.67;1.57;;;7.30;38.30;6.70;99071.00;;;;5073382;28;20218;-75
2022/03/10 09:33:04;;;;;;;1.83;1.73;;;7.40;37.70;6.80;99073.00;;;;5055763;28;20235;-75
2022/03/10 09:35:31;;;;;;;2.40;2.20;;;7.60;37.50;7.00;99073.00;;;;5073330;28;20657;-75
2022/03/10 09:37:57;;;;;;;5.27;3.13;;;7.70;37.10;7.10;99069.00;;;;5073125;28;20658;-74
2022/03/10 09:40:24;;;;;;;3.17;2.87;;;7.90;36.90;7.40;99069.00;;;;5073218;28;20192;-74
2022/03/10 09:42:51;;;;;;;2.13;2.03;;;8.00;36.20;7.50;99067.00;;;;5073156;28;20287;-73
2022/03/10 09:45:19;;;;;;;2.63;2.43;;;8.10;35.80;7.60;99065.00;;;;5073249;28;20199;-74
2022/03/10 09:47:47;;;;;;;1.07;1.07;;;8.20;36.20;7.70;99075.00;;;;5073064;28;20223;-73
2022/03/10 09:50:18;;;;;;;5.43;2.27;;;8.30;35.70;7.80;99067.00;;;;5073019;28;20239;-73
2022/03/10 09:52:47;;;;;;;2.13;2.03;;;8.50;35.50;7.90;99067.00;;;;5072971;28;20219;-74
2022/03/10 09:55:18;;;;;;;2.63;2.40;;;8.50;35.00;8.00;99060.00;;;;5073208;28;20218;-73
2022/03/10 09:57:47;;;;;;;2.47;2.27;;;8.70;35.60;8.10;99064.00;;;;5072992;28;20655;-75
2022/03/10 10:00:17;;;;;;;2.23;2.07;;;8.80;34.70;8.30;99064.00;;;;5073229;28;20214;-73
2022/03/10 10:02:45;;;;;;;1.60;1.50;;;8.90;34.30;8.50;99053.00;;;;5073010;28;20491;-74
2022/03/10 10:05:27;;;;;;;2.63;1.93;;;9.10;34.30;8.90;99061.00;;;;5055352;28;20208;-75
2022/03/10 10:08:08;;;;;;;2.60;1.63;;;9.40;33.50;8.90;99064.00;;;;5072765;28;20206;-72
2022/03/10 10:10:39;;;;;;;1.40;1.30;;;9.50;33.30;9.00;99059.00;;;;5073120;28;20226;-72
2022/03/10 10:13:06;;;;;;;1.40;1.33;;;9.70;33.00;9.40;99054.00;;;;5072836;28;20242;-72
2022/03/10 10:15:38;;;;;;;2.00;1.90;;;9.90;33.20;9.50;99051.00;;;;5073133;28;20215;-75
2022/03/10 10:18:13;;;;;;;1.27;1.27;;;10.10;32.00;9.70;99047.00;;;;5076437;28;20207;-74
2022/03/10 10:20:47;;;;;;;1.73;1.63;;;10.30;32.00;9.90;99041.00;;;;5076260;28;20242;-73
2022/03/10 10:23:22;;;;;;;2.17;2.07;;;10.50;32.30;10.10;99036.00;;;;5076092;28;20265;-73
2022/03/10 10:25:52;;;;;;;2.37;2.17;;;10.70;31.70;10.10;99035.00;;;;5058500;28;20238;-74
2022/03/10 10:28:27;;;;;;;1.03;1.03;;;10.80;31.40;10.20;99030.00;;;;5076080;28;20219;-74
2022/03/10 10:30:56;;;;;;;1.73;1.63;;;10.80;31.60;10.50;99029.00;;;;5076078;28;20248;-75
2022/03/10 10:33:24;;;;;;;2.23;2.03;;;11.00;30.60;10.70;99024.00;;;;5076224;28;20237;-74
2022/03/10 10:36:11;;;;;;;1.37;1.37;;;11.20;29.70;10.80;99027.00;;;;5076004;28;20348;-75
2022/03/10 10:38:37;;;;;;;1.87;1.77;;;11.40;29.30;10.80;99015.00;;;;5076067;28;20191;-72
2022/03/10 10:41:25;;;;;;;1.53;1.47;;;11.50;29.40;11.20;99019.00;;;;5075971;28;20199;-74
2022/03/10 10:43:54;;;;;;;1.43;1.33;;;11.70;28.80;11.30;99010.00;;;;5075836;28;20651;-73
2022/03/10 10:46:31;;;;;;;1.63;1.53;;;11.90;28.40;11.40;99014.00;;;;5075816;28;20191;-72
2022/03/10 10:49:01;;;;;;;1.90;1.67;;;12.00;28.30;11.60;99001.00;;;;5075681;28;20218;-74
2022/03/10 10:51:34;;;;;;;1.13;1.07;;;12.20;28.40;11.80;99014.00;;;;5058224;28;20215;-75
2022/03/10 10:54:07;;;;;;;1.07;1.07;;;12.30;27.50;11.90;99006.00;;;;5075910;28;20199;-73
2022/03/10 10:56:35;;;;;;;2.47;2.27;;;12.50;27.10;12.00;99012.00;;;;5076006;28;20318;-73
2022/03/10 10:59:03;;;;;;;1.27;1.27;;;12.60;27.00;12.20;99009.00;;;;5075665;28;20203;-75
2022/03/10 11:01:35;;;;;;;2.73;2.23;;;12.80;27.10;12.20;99008.00;;;;5075555;28;20226;-72
2022/03/10 11:04:05;;;;;;;1.30;1.30;;;12.80;26.00;12.50;99006.00;;;;5057968;28;20199;-72
2022/03/10 11:06:34;;;;;;;1.20;1.20;;;13.00;26.00;12.90;99003.00;;;;5075472;28;20505;-75
2022/03/10 11:09:03;;;;;;;1.47;1.37;;;13.30;25.50;12.90;98998.00;;;;5075422;28;20662;-76
2022/03/10 11:11:31;;;;;;;1.57;1.47;;;13.50;24.50;13.00;98995.00;;;;5075488;28;20210;-75